Time;durP1;ratioP1;P1;durP2;ratioP2;P2;SDS_P1;SDS_P2;PMS_P1;PMS_P2;Temp;Humidity;BMP_temperature;BMP_pressure;BME280_temperature;BME280_humidity;BME280_pressure;Samples;Min_cycle;Max_cycle;Signal;HPM_P1;HPM_P2
2022/03/09 00:00:24;;;;;;;;;;;1.90;99.90;;;;;;5079015;28;19972;-84
2022/03/09 00:02:49;;;;;;;;;;;1.90;99.90;;;;;;5079001;28;20376;-84
2022/03/09 00:05:15;;;;;;;;;;;1.80;99.90;;;;;;5078843;28;19920;-84
2022/03/09 00:07:40;;;;;;;;;;;1.80;99.90;;;;;;5078768;28;19920;-84
2022/03/09 00:10:06;;;;;;;;;;;1.80;99.90;;;;;;5079274;28;19927;-84
2022/03/09 00:12:32;;;;;;;;;;;1.70;99.90;;;;;;5078965;28;19924;-84
2022/03/09 00:15:01;;;;;;;;;;;1.70;99.90;;;;;;5095678;28;19919;-84
2022/03/09 00:17:26;;;;;;;;;;;1.80;99.90;;;;;;5078493;28;19919;-84
2022/03/09 00:19:52;;;;;;;;;;;1.70;99.90;;;;;;5095479;28;19919;-84
2022/03/09 00:22:17;;;;;;;;;;;1.60;99.90;;;;;;5078680;28;20016;-84
2022/03/09 00:24:42;;;;;;;;;;;1.10;99.90;;;;;;5062297;28;19927;-84
2022/03/09 00:27:08;;;;;;;;;;;1.70;99.90;;;;;;5078485;28;19968;-84
2022/03/09 00:29:34;;;;;;;;;;;1.60;99.90;;;;;;5095931;28;20024;-84
2022/03/09 00:31:59;;;;;;;;;;;1.60;99.90;;;;;;5078715;28;19924;-84
2022/03/09 00:34:25;;;;;;;;;;;1.50;99.90;;;;;;5078823;28;19919;-85
2022/03/09 00:36:50;;;;;;;;;;;1.50;99.90;;;;;;5078101;28;19919;-84
2022/03/09 00:39:15;;;;;;;;;;;1.50;99.90;;;;;;5080126;28;19927;-84
2022/03/09 00:41:44;;;;;;;;;;;1.50;99.90;;;;;;5099592;28;19924;-84
2022/03/09 00:44:09;;;;;;;;;;;1.40;99.90;;;;;;5082546;28;19945;-84
2022/03/09 00:46:38;;;;;;;;;;;1.40;99.90;;;;;;5082658;28;19924;-84
2022/03/09 00:49:03;;;;;;;;;;;1.30;99.90;;;;;;5099629;28;20366;-84
2022/03/09 00:51:29;;;;;;;;;;;1.30;99.90;;;;;;5082386;28;19927;-84
2022/03/09 00:53:58;;;;;;;;;;;1.30;99.90;;;;;;5099337;28;19967;-84
2022/03/09 00:56:23;;;;;;;;;;;1.30;99.90;;;;;;5081881;28;19967;-84
2022/03/09 00:58:50;;;;;;;;;;;1.20;99.90;;;;;;5082694;28;19919;-84
2022/03/09 01:01:15;;;;;;;;;;;1.30;99.90;;;;;;5099268;28;19920;-84
2022/03/09 01:03:41;;;;;;;;;;;1.20;99.90;;;;;;5082199;28;19919;-84
2022/03/09 01:06:07;;;;;;;;;;;1.30;99.90;;;;;;5082071;28;20663;-85
2022/03/09 01:08:32;;;;;;;;;;;1.30;99.90;;;;;;5082119;28;20318;-84
2022/03/09 01:10:58;;;;;;;;;;;1.30;99.90;;;;;;5082081;28;19926;-84
2022/03/09 01:13:23;;;;;;;;;;;1.30;99.90;;;;;;5082013;28;19923;-84
2022/03/09 01:15:49;;;;;;;;;;;1.40;99.90;;;;;;5082246;28;19926;-84
2022/03/09 01:18:14;;;;;;;;;;;1.40;99.90;;;;;;5081752;28;19919;-84
2022/03/09 01:20:40;;;;;;;;;;;1.40;99.90;;;;;;5081815;28;20334;-84
2022/03/09 01:23:05;;;;;;;;;;;1.40;99.90;;;;;;5081823;28;19926;-84
2022/03/09 01:25:31;;;;;;;;;;;1.50;99.90;;;;;;5081823;28;19973;-84
2022/03/09 01:27:56;;;;;;;;;;;1.50;99.90;;;;;;5081303;28;20014;-84
2022/03/09 01:30:22;;;;;;;;;;;1.50;99.90;;;;;;5098595;28;19985;-85
2022/03/09 01:32:48;;;;;;;;;;;1.40;99.90;;;;;;5081566;28;19927;-84
2022/03/09 01:35:14;;;;;;;;;;;1.40;99.90;;;;;;5098611;28;19996;-84
2022/03/09 01:37:39;;;;;;;;;;;1.30;99.90;;;;;;5098103;28;20007;-84
2022/03/09 01:40:05;;;;;;;;;;;1.30;99.90;;;;;;5081623;28;20015;-84
2022/03/09 01:42:31;;;;;;;;;;;1.20;99.90;;;;;;5081522;28;20292;-84
2022/03/09 01:45:00;;;;;;;;;;;1.20;99.90;;;;;;5098693;28;20391;-84
2022/03/09 01:47:25;;;;;;;;;;;1.20;99.90;;;;;;5081033;28;19927;-84
2022/03/09 01:49:51;;;;;;;;;;;1.10;99.90;;;;;;5080963;28;19920;-84
2022/03/09 01:52:16;;;;;;;;;;;1.20;99.90;;;;;;5081398;28;19923;-84
2022/03/09 01:54:42;;;;;;;;;;;1.00;99.90;;;;;;5081451;28;19973;-84
2022/03/09 01:57:07;;;;;;;;;;;0.90;99.90;;;;;;5080894;28;19924;-84
2022/03/09 01:59:34;;;;;;;;;;;0.80;99.90;;;;;;5081132;28;19920;-84
2022/03/09 02:01:59;;;;;;;;;;;0.80;99.90;;;;;;5081331;28;19973;-85
2022/03/09 02:04:25;;;;;;;;;;;0.80;99.90;;;;;;5081056;28;19923;-84
2022/03/09 02:06:50;;;;;;;;;;;1.20;99.90;;;;;;5080487;28;19955;-84
2022/03/09 02:12:00;;;;;;;;;;;0.70;99.90;;;;;;5097758;28;19924;-84
2022/03/09 02:14:26;;;;;;;;;;;0.70;99.90;;;;;;5097778;28;20432;-84
2022/03/09 02:16:52;;;;;;;;;;;0.60;99.90;;;;;;5080700;28;19931;-84
2022/03/09 02:19:18;;;;;;;;;;;0.70;99.90;;;;;;5080799;28;19923;-84
2022/03/09 02:21:44;;;;;;;;;;;0.70;99.90;;;;;;5080562;28;19926;-84
2022/03/09 02:24:10;;;;;;;;;;;0.70;99.90;;;;;;5081035;28;20284;-84
2022/03/09 02:26:35;;;;;;;;;;;0.70;99.90;;;;;;5080551;28;19924;-84
2022/03/09 02:29:01;;;;;;;;;;;0.90;99.90;;;;;;5080592;28;19927;-84
2022/03/09 02:31:26;;;;;;;;;;;0.70;99.90;;;;;;5080574;28;19926;-84
2022/03/09 02:33:52;;;;;;;;;;;0.80;99.90;;;;;;5080507;28;20398;-84
2022/03/09 02:36:20;;;;;;;;;;;0.70;99.90;;;;;;5080314;28;19930;-84
2022/03/09 02:38:45;;;;;;;;;;;0.70;99.90;;;;;;5080440;28;19926;-84
2022/03/09 02:41:12;;;;;;;;;;;0.70;99.90;;;;;;5097330;28;20030;-84
2022/03/09 02:43:38;;;;;;;;;;;0.60;99.90;;;;;;5080361;28;19924;-84
2022/03/09 02:46:03;;;;;;;;;;;0.60;99.90;;;;;;5079997;28;19927;-85
2022/03/09 02:48:29;;;;;;;;;;;0.50;99.90;;;;;;5097166;28;19963;-84
2022/03/09 02:50:54;;;;;;;;;;;0.80;99.90;;;;;;5080455;28;19927;-84
2022/03/09 02:53:20;;;;;;;;;;;0.40;99.90;;;;;;5080074;28;19924;-84
2022/03/09 02:55:45;;;;;;;;;;;0.40;99.90;;;;;;5080170;28;19969;-84
2022/03/09 02:58:12;;;;;;;;;;;0.40;99.90;;;;;;5096936;28;20381;-84
2022/03/09 03:00:38;;;;;;;;;;;0.40;99.90;;;;;;5079785;28;19927;-84
2022/03/09 03:03:03;;;;;;;;;;;0.40;99.90;;;;;;5096350;28;19920;-84
2022/03/09 03:05:29;;;;;;;;;;;0.50;99.90;;;;;;5079872;28;19942;-84
2022/03/09 03:07:54;;;;;;;;;;;0.30;99.90;;;;;;5096881;28;19920;-84
2022/03/09 03:10:19;;;;;;;;;;;0.30;99.90;;;;;;5096636;28;19926;-84
2022/03/09 03:12:45;;;;;;;;;;;0.30;99.90;;;;;;5096711;28;19924;-84
2022/03/09 03:15:11;;;;;;;;;;;0.30;99.90;;;;;;5080105;28;19925;-84
2022/03/09 03:17:37;;;;;;;;;;;0.20;99.90;;;;;;5079386;28;19964;-84
2022/03/09 03:20:03;;;;;;;;;;;0.30;99.90;;;;;;5063191;28;19920;-84
2022/03/09 03:22:28;;;;;;;;;;;0.30;99.90;;;;;;5080114;28;19963;-84
2022/03/09 03:24:54;;;;;;;;;;;0.30;99.90;;;;;;5079928;28;19927;-84
2022/03/09 03:27:19;;;;;;;;;;;0.30;99.90;;;;;;5079106;28;19919;-84
2022/03/09 03:29:45;;;;;;;;;;;0.20;99.90;;;;;;5096422;28;19920;-84
2022/03/09 03:32:11;;;;;;;;;;;0.10;99.90;;;;;;5079379;28;19930;-84
2022/03/09 03:34:36;;;;;;;;;;;0.10;99.90;;;;;;5079341;28;19919;-84
2022/03/09 03:37:02;;;;;;;;;;;0.10;99.90;;;;;;5079295;28;20315;-84
2022/03/09 03:39:27;;;;;;;;;;;0.10;99.90;;;;;;5079483;28;19923;-84
2022/03/09 03:41:53;;;;;;;;;;;0.10;99.90;;;;;;5079588;28;20377;-84
2022/03/09 03:44:18;;;;;;;;;;;0.10;99.90;;;;;;5079666;28;19993;-84
2022/03/09 03:46:44;;;;;;;;;;;0.30;99.90;;;;;;5078974;28;19926;-84
2022/03/09 03:49:09;;;;;;;;;;;0.30;99.90;;;;;;5079242;28;19949;-84
2022/03/09 03:51:35;;;;;;;;;;;0.10;99.90;;;;;;5079130;28;20305;-84
2022/03/09 03:54:00;;;;;;;;;;;0.90;99.90;;;;;;5079159;28;19963;-85
2022/03/09 03:56:26;;;;;;;;;;;0.00;99.90;;;;;;5078723;28;20376;-84
2022/03/09 03:58:52;;;;;;;;;;;-0.10;99.90;;;;;;5079235;28;20305;-84
2022/03/09 04:01:17;;;;;;;;;;;-0.20;99.90;;;;;;5079279;28;19931;-84
2022/03/09 04:03:42;;;;;;;;;;;-0.10;99.90;;;;;;5079148;28;19927;-84
2022/03/09 04:06:08;;;;;;;;;;;-0.20;99.90;;;;;;5078949;28;19959;-85
2022/03/09 04:08:33;;;;;;;;;;;-0.20;99.90;;;;;;5096166;28;19926;-84
2022/03/09 04:10:59;;;;;;;;;;;-0.30;99.90;;;;;;5079160;28;20010;-84
2022/03/09 04:13:24;;;;;;;;;;;-0.30;99.90;;;;;;5095663;28;19923;-84
2022/03/09 04:15:50;;;;;;;;;;;-0.30;99.90;;;;;;5078982;28;19920;-84
2022/03/09 04:18:15;;;;;;;;;;;-0.30;99.90;;;;;;5078905;28;19919;-84
2022/03/09 04:20:41;;;;;;;;;;;-0.30;99.90;;;;;;5078704;28;19926;-84
2022/03/09 04:23:08;;;;;;;;;;;-0.20;99.90;;;;;;5078954;28;19920;-84
2022/03/09 04:25:35;;;;;;;;;;;-0.30;99.90;;;;;;5079139;28;19971;-84
2022/03/09 04:28:00;;;;;;;;;;;-0.20;99.90;;;;;;5078560;28;19919;-84
2022/03/09 04:30:26;;;;;;;;;;;-0.30;99.90;;;;;;5078801;28;19920;-84
2022/03/09 04:32:51;;;;;;;;;;;-0.30;99.90;;;;;;5078893;28;19980;-84
2022/03/09 04:35:17;;;;;;;;;;;-0.30;99.90;;;;;;5095485;28;19923;-84
2022/03/09 04:37:43;;;;;;;;;;;-0.30;99.90;;;;;;5078768;28;19920;-84
2022/03/09 04:40:08;;;;;;;;;;;-0.30;99.90;;;;;;5078819;28;19920;-84
2022/03/09 04:42:34;;;;;;;;;;;-0.30;99.90;;;;;;5078776;28;19927;-84
2022/03/09 04:45:00;;;;;;;;;;;-0.30;99.90;;;;;;5078903;28;19920;-84
2022/03/09 04:47:25;;;;;;;;;;;-0.40;99.90;;;;;;5078269;28;19919;-84
2022/03/09 04:49:51;;;;;;;;;;;-0.40;99.90;;;;;;5078652;28;19926;-84
2022/03/09 04:52:17;;;;;;;;;;;-0.40;99.90;;;;;;5078375;28;19966;-84
2022/03/09 04:54:43;;;;;;;;;;;-0.40;99.90;;;;;;5095618;28;19920;-84
2022/03/09 04:57:08;;;;;;;;;;;-0.40;99.90;;;;;;5078372;28;20395;-84
2022/03/09 04:59:33;;;;;;;;;;;-0.30;99.90;;;;;;5078512;28;19963;-84
2022/03/09 05:01:59;;;;;;;;;;;-0.50;99.90;;;;;;5074247;28;19944;-84
2022/03/09 05:04:24;;;;;;;;;;;-0.50;99.90;;;;;;5108361;28;19920;-84
2022/03/09 05:06:50;;;;;;;;;;;-0.50;99.90;;;;;;5077295;28;19920;-84
2022/03/09 05:09:15;;;;;;;;;;;-0.50;99.90;;;;;;5078248;28;19920;-84
2022/03/09 05:11:41;;;;;;;;;;;-0.50;99.90;;;;;;5077736;28;19920;-84
2022/03/09 05:14:06;;;;;;;;;;;-0.60;99.90;;;;;;5077811;28;19928;-84
2022/03/09 05:16:32;;;;;;;;;;;-0.60;99.90;;;;;;5077465;28;20381;-84
2022/03/09 05:18:57;;;;;;;;;;;-0.60;99.90;;;;;;5077769;28;19927;-84
2022/03/09 05:21:23;;;;;;;;;;;-0.70;99.90;;;;;;5094544;28;19919;-84
2022/03/09 05:23:48;;;;;;;;;;;-0.70;99.90;;;;;;5094609;28;19919;-84
2022/03/09 05:26:14;;;;;;;;;;;-0.70;99.90;;;;;;5080267;28;19985;-84
2022/03/09 05:28:39;;;;;;;;;;;-0.70;99.90;;;;;;5098175;28;19923;-84
2022/03/09 05:31:05;;;;;;;;;;;-0.70;99.90;;;;;;5098442;28;19925;-84
2022/03/09 05:33:30;;;;;;;;;;;-1.30;99.90;;;;;;5080994;28;19931;-84
2022/03/09 05:35:56;;;;;;;;;;;-0.70;99.90;;;;;;5097976;28;19943;-84
2022/03/09 05:38:21;;;;;;;;;;;-0.80;99.90;;;;;;5097311;28;19992;-84
2022/03/09 05:40:47;;;;;;;;;;;-0.80;99.90;;;;;;5081357;28;20257;-84
2022/03/09 05:43:12;;;;;;;;;;;-0.80;99.90;;;;;;5080989;28;19984;-84
2022/03/09 05:45:38;;;;;;;;;;;-0.80;99.90;;;;;;5081136;28;20303;-84
2022/03/09 05:48:04;;;;;;;;;;;-0.80;99.90;;;;;;5080662;28;19920;-84
2022/03/09 05:50:30;;;;;;;;;;;-0.70;99.90;;;;;;5097917;28;20284;-84
2022/03/09 05:52:55;;;;;;;;;;;-0.70;99.90;;;;;;5080948;28;19930;-84
2022/03/09 05:55:21;;;;;;;;;;;-0.70;99.90;;;;;;5080902;28;19920;-84
2022/03/09 05:57:46;;;;;;;;;;;-0.60;99.90;;;;;;5080552;28;19919;-84
2022/03/09 06:00:12;;;;;;;;;;;-0.70;99.90;;;;;;5081156;28;19920;-84
2022/03/09 06:02:38;;;;;;;;;;;-0.70;99.90;;;;;;5080767;28;19924;-84
2022/03/09 06:05:03;;;;;;;;;;;-0.80;99.90;;;;;;5080296;28;20341;-84
2022/03/09 06:07:31;;;;;;;;;;;-0.70;99.90;;;;;;5080103;28;20022;-84
2022/03/09 06:09:58;;;;;;;;;;;-0.70;99.90;;;;;;5080506;28;20396;-84
2022/03/09 06:12:24;;;;;;;;;;;-0.70;99.90;;;;;;5080519;28;20526;-84
2022/03/09 06:14:49;;;;;;;;;;;-0.50;99.90;;;;;;5080591;28;19923;-84
2022/03/09 06:17:19;;;;;;;;;;;-0.50;99.90;;;;;;5080015;28;19919;-84
2022/03/09 06:19:44;;;;;;;;;;;-0.50;99.90;;;;;;5097321;28;20315;-84
2022/03/09 06:22:10;;;;;;;;;;;-0.50;99.90;;;;;;5080555;28;19920;-84
2022/03/09 06:24:35;;;;;;;;;;;-0.40;99.90;;;;;;5080538;28;20339;-84
2022/03/09 06:27:01;;;;;;;;;;;-0.40;99.90;;;;;;5096951;28;19920;-84
2022/03/09 06:29:26;;;;;;;;;;;-0.40;99.90;;;;;;5080432;28;19920;-84
2022/03/09 06:31:52;;;;;;;;;;;-0.40;99.90;;;;;;5087056;27;19919;-84
2022/03/09 06:34:17;;;;;;;;;;;-0.40;99.90;;;;;;5117712;27;19943;-84
2022/03/09 06:36:44;;;;;;;;;;;-0.50;99.90;;;;;;5133789;27;19920;-84
2022/03/09 06:39:14;;;;;;;;;;;-0.50;99.90;;;;;;5124904;27;19919;-84
2022/03/09 06:41:40;;;;;;;;;;;-0.50;99.90;;;;;;5079909;28;19919;-85
2022/03/09 06:44:05;;;;;;;;;;;-0.40;99.90;;;;;;5096867;28;20395;-84
2022/03/09 06:46:31;;;;;;;;;;;-0.50;99.90;;;;;;5079205;28;20010;-84
2022/03/09 06:48:56;;;;;;;;;;;-0.40;99.90;;;;;;5079304;28;19943;-84
2022/03/09 06:51:25;;;;;;;;;;;-0.40;99.90;;;;;;5079352;28;19927;-84
2022/03/09 06:53:50;;;;;;;;;;;-0.30;99.90;;;;;;5095964;28;19923;-84
2022/03/09 06:56:18;;;;;;;;;;;-0.20;99.90;;;;;;5078816;28;19919;-84
2022/03/09 06:58:44;;;;;;;;;;;-0.20;99.90;;;;;;5079115;28;19926;-84
2022/03/09 07:01:09;;;;;;;;;;;-0.10;99.90;;;;;;5096233;28;19919;-84
2022/03/09 07:03:35;;;;;;;;;;;0.00;99.90;;;;;;5079121;28;20066;-84
2022/03/09 07:06:00;;;;;;;;;;;0.20;99.90;;;;;;5077601;28;19978;-85
2022/03/09 07:08:25;;;;;;;;;;;0.20;99.90;;;;;;5094784;28;20269;-84
2022/03/09 07:10:51;;;;;;;;;;;0.30;99.90;;;;;;5079541;28;20558;-84
2022/03/09 07:13:16;;;;;;;;;;;0.30;99.90;;;;;;5062541;28;19930;-85
2022/03/09 07:15:42;;;;;;;;;;;0.50;99.90;;;;;;5079073;28;19920;-84
2022/03/09 07:18:07;;;;;;;;;;;0.60;99.90;;;;;;5087277;27;20384;-83
2022/03/09 07:20:33;;;;;;;;;;;0.70;99.90;;;;;;5107608;28;19927;-84
2022/03/09 07:22:58;;;;;;;;;;;0.80;99.90;;;;;;5079252;28;20337;-84
2022/03/09 07:25:25;;;;;;;;;;;0.80;99.90;;;;;;5079121;28;19927;-84
2022/03/09 07:27:51;;;;;;;;;;;1.00;99.90;;;;;;5078328;28;19923;-84
2022/03/09 07:30:17;;;;;;;;;;;1.00;99.90;;;;;;5078820;28;20293;-84
2022/03/09 07:32:42;;;;;;;;;;;1.10;99.90;;;;;;5079072;28;19924;-84
2022/03/09 07:35:08;;;;;;;;;;;1.20;99.90;;;;;;5079160;28;19919;-84
2022/03/09 07:37:34;;;;;;;;;;;1.30;99.90;;;;;;5078340;28;19939;-84
2022/03/09 07:39:59;;;;;;;;;;;1.40;99.90;;;;;;5078587;28;20358;-85
2022/03/09 07:42:25;;;;;;;;;;;1.50;99.90;;;;;;5078773;28;19920;-84
2022/03/09 07:44:50;;;;;;;;;;;1.60;99.90;;;;;;5095453;28;19927;-85
2022/03/09 07:47:16;;;;;;;;;;;1.70;99.90;;;;;;5077885;28;20415;-85
2022/03/09 07:49:42;;;;;;;;;;;1.80;99.90;;;;;;5061911;28;20049;-84
2022/03/09 07:52:07;;;;;;;;;;;1.90;99.90;;;;;;5078598;28;19920;-84
2022/03/09 07:54:33;;;;;;;;;;;2.20;99.90;;;;;;5080426;27;19938;-85
2022/03/09 07:56:59;;;;;;;;;;;2.10;99.90;;;;;;5081766;27;19919;-85
2022/03/09 07:59:26;;;;;;;;;;;2.20;99.90;;;;;;5132891;27;19919;-85
2022/03/09 08:01:53;;;;;;;;;;;2.40;99.90;;;;;;5113087;28;19928;-85
2022/03/09 08:04:19;;;;;;;;;;;2.40;99.90;;;;;;5078059;28;19930;-85
2022/03/09 08:06:49;;;;;;;;;;;2.50;99.90;;;;;;5137749;27;20002;-84
2022/03/09 08:09:14;;;;;;;;;;;2.60;99.90;;;;;;5098640;27;19928;-84
2022/03/09 08:11:40;;;;;;;;;;;2.70;99.90;;;;;;5131640;27;19944;-84
2022/03/09 08:14:05;;;;;;;;;;;2.90;99.90;;;;;;5095290;28;20015;-83
2022/03/09 08:16:31;;;;;;;;;;;3.00;99.90;;;;;;5090322;28;20368;-83
2022/03/09 08:18:56;;;;;;;;;;;3.10;99.90;;;;;;5103823;28;19998;-83
2022/03/09 08:21:25;;;;;;;;;;;3.30;99.90;;;;;;5078571;28;19919;-83
2022/03/09 08:23:50;;;;;;;;;;;3.40;99.90;;;;;;5078649;28;20007;-85
2022/03/09 08:26:16;;;;;;;;;;;3.50;99.90;;;;;;5078055;28;20419;-85
2022/03/09 08:28:42;;;;;;;;;;;3.60;99.90;;;;;;5078539;28;19945;-86
2022/03/09 08:31:07;;;;;;;;;;;3.80;99.90;;;;;;5078524;28;19969;-85
2022/03/09 08:33:33;;;;;;;;;;;3.90;99.90;;;;;;5078145;28;19991;-86
2022/03/09 08:35:59;;;;;;;;;;;4.00;99.90;;;;;;5078218;28;19923;-85
2022/03/09 08:38:24;;;;;;;;;;;4.00;99.90;;;;;;5077998;28;19942;-85
2022/03/09 08:40:50;;;;;;;;;;;4.10;99.90;;;;;;5078217;28;19923;-85
2022/03/09 08:43:15;;;;;;;;;;;4.30;99.90;;;;;;5078573;28;20364;-86
2022/03/09 08:45:42;;;;;;;;;;;4.40;99.90;;;;;;5078322;28;19920;-85
2022/03/09 08:48:07;;;;;;;;;;;4.40;99.90;;;;;;5111587;28;19920;-85
2022/03/09 08:50:33;;;;;;;;;;;4.50;99.90;;;;;;5078134;28;20018;-84
2022/03/09 08:53:02;;;;;;;;;;;4.60;99.90;;;;;;5094816;28;20032;-84
2022/03/09 08:55:28;;;;;;;;;;;4.70;99.90;;;;;;5094704;28;19997;-84
2022/03/09 08:57:53;;;;;;;;;;;4.80;99.90;;;;;;5077501;28;19924;-84
2022/03/09 09:00:19;;;;;;;;;;;4.90;99.90;;;;;;5079773;28;19919;-85
2022/03/09 09:02:45;;;;;;;;;;;5.00;99.90;;;;;;5081679;28;19927;-84
2022/03/09 09:05:13;;;;;;;;;;;5.10;99.90;;;;;;5099228;28;19931;-83
2022/03/09 09:07:39;;;;;;;;;;;5.20;99.90;;;;;;5081567;28;19920;-85
2022/03/09 09:10:05;;;;;;;;;;;5.20;99.90;;;;;;5081845;28;20016;-82
2022/03/09 09:12:31;;;;;;;;;;;5.40;99.90;;;;;;5081444;28;19963;-84
2022/03/09 09:14:57;;;;;;;;;;;5.50;99.90;;;;;;5098442;28;20027;-84
2022/03/09 09:17:23;;;;;;;;;;;5.50;99.90;;;;;;5081265;28;20073;-84
2022/03/09 09:19:48;;;;;;;;;;;5.60;99.90;;;;;;5081784;28;19923;-83
2022/03/09 09:22:14;;;;;;;;;;;5.70;99.90;;;;;;5098443;28;20281;-84
2022/03/09 09:24:39;;;;;;;;;;;5.70;99.90;;;;;;5081232;28;20339;-85
2022/03/09 09:27:05;;;;;;;;;;;5.80;99.90;;;;;;5081111;28;19920;-83
2022/03/09 09:29:31;;;;;;;;;;;5.90;99.90;;;;;;5098278;28;19919;-84
2022/03/09 09:31:59;;;;;;;;;;;5.90;99.90;;;;;;5081816;28;19920;-84
2022/03/09 09:34:25;;;;;;;;;;;6.20;99.90;;;;;;5081212;28;20312;-84
2022/03/09 09:36:52;;;;;;;;;;;6.10;99.90;;;;;;5064295;28;19920;-86
2022/03/09 09:39:18;;;;;;;;;;;6.20;99.90;;;;;;5081059;28;19920;-85
2022/03/09 09:41:48;;;;;;;;;;;6.30;99.90;;;;;;5081575;28;20295;-86
2022/03/09 09:44:14;;;;;;;;;;;6.40;99.90;;;;;;5081333;28;19920;-87
2022/03/09 09:46:41;;;;;;;;;;;6.40;99.90;;;;;;5080796;28;19992;-86
2022/03/09 09:49:12;;;;;;;;;;;6.60;99.90;;;;;;5080933;28;19920;-86
2022/03/09 09:51:39;;;;;;;;;;;6.70;99.90;;;;;;5080818;28;20002;-86
2022/03/09 09:54:05;;;;;;;;;;;6.90;99.90;;;;;;5097746;28;20376;-86
2022/03/09 09:56:34;;;;;;;;;;;7.20;99.90;;;;;;5080766;28;19924;-86
2022/03/09 09:59:00;;;;;;;;;;;7.90;99.90;;;;;;5081142;28;19920;-86
2022/03/09 10:01:26;;;;;;;;;;;7.20;99.90;;;;;;5080889;28;19931;-84
2022/03/09 10:03:51;;;;;;;;;;;7.20;99.90;;;;;;5087288;27;19926;-85
2022/03/09 10:06:16;;;;;;;;;;;7.30;99.90;;;;;;5116011;27;19920;-84
2022/03/09 10:08:58;;;;;;;;;;;7.50;99.90;;;;;;5079279;28;19920;-84
2022/03/09 10:11:23;;;;;;;;;;;7.50;99.90;;;;;;5080050;28;19926;-84
2022/03/09 10:13:49;;;;;;;;;;;7.60;99.90;;;;;;5097171;28;19928;-85
2022/03/09 10:16:19;;;;;;;;;;;7.60;99.90;;;;;;5080501;28;20392;-87
2022/03/09 10:18:55;;;;;;;;;;;7.80;99.90;;;;;;5085884;28;20010;-87
2022/03/09 10:21:26;;;;;;;;;;;7.80;99.90;;;;;;5131179;27;19919;-88
2022/03/09 10:23:53;;;;;;;;;;;7.90;99.90;;;;;;5131294;27;19920;-85
2022/03/09 10:26:19;;;;;;;;;;;8.00;99.90;;;;;;5148450;27;19923;-86
2022/03/09 10:28:54;;;;;;;;;;;8.10;99.90;;;;;;5131452;27;19926;-86
2022/03/09 10:31:29;;;;;;;;;;;8.10;99.90;;;;;;5131248;27;19920;-87
2022/03/09 10:34:04;;;;;;;;;;;8.20;99.60;;;;;;5104768;28;19989;-85
2022/03/09 10:36:30;;;;;;;;;;;8.20;99.70;;;;;;5085357;28;19926;-85
2022/03/09 10:39:23;;;;;;;;;;;8.30;99.90;;;;;;5079926;28;20006;-84
2022/03/09 10:41:49;;;;;;;;;;;8.40;99.90;;;;;;5106595;27;19930;-85
2022/03/09 10:44:14;;;;;;;;;;;8.50;99.90;;;;;;5134598;27;19920;-86
2022/03/09 10:46:44;;;;;;;;;;;8.50;99.90;;;;;;5116832;27;19920;-85
2022/03/09 10:49:18;;;;;;;;;;;8.50;99.30;;;;;;5135707;27;19919;-86
2022/03/09 10:51:46;;;;;;;;;;;8.60;99.60;;;;;;5117525;27;19920;-84
2022/03/09 10:54:28;;;;;;;;;;;8.70;97.70;;;;;;5100032;27;19975;-84
2022/03/09 10:57:04;;;;;;;;;;;8.80;99.30;;;;;;5133749;27;19926;-84
2022/03/09 10:59:41;;;;;;;;;;;8.80;96.70;;;;;;5085875;28;20006;-85
2022/03/09 11:02:08;;;;;;;;;;;9.00;99.90;;;;;;5079835;28;19931;-85
2022/03/09 11:04:35;;;;;;;;;;;9.10;97.90;;;;;;5079677;28;20018;-84
2022/03/09 11:07:01;;;;;;;;;;;9.10;97.30;;;;;;5079105;28;19920;-85
2022/03/09 11:09:27;;;;;;;;;;;9.20;96.80;;;;;;5096399;28;19924;-85
2022/03/09 11:11:53;;;;;;;;;;;9.20;98.50;;;;;;5079388;28;20018;-85
2022/03/09 11:14:20;;;;;;;;;;;9.30;97.10;;;;;;5087929;27;19987;-84
2022/03/09 11:16:47;;;;;;;;;;;9.30;96.90;;;;;;5093096;27;19923;-85
2022/03/09 11:19:13;;;;;;;;;;;9.40;98.40;;;;;;5099171;27;19919;-85
2022/03/09 11:21:39;;;;;;;;;;;9.50;96.70;;;;;;5122069;27;19927;-85
2022/03/09 11:24:09;;;;;;;;;;;9.60;96.40;;;;;;5078134;28;20456;-85
2022/03/09 11:26:38;;;;;;;;;;;9.60;96.90;;;;;;5061668;28;19919;-85
2022/03/09 11:29:04;;;;;;;;;;;9.70;95.60;;;;;;5076610;28;19942;-85
2022/03/09 11:42:44;;;;;;;0.47;0.45;;;9.80;98.70;;;;;;6251251;22;1229178;-88
2022/03/09 11:45:22;;;;;;;1.17;0.77;;;10.10;94.30;;;;;;6270051;22;20020;-91
2022/03/09 11:48:03;;;;;;;14.00;5.07;;;10.20;95.90;;;;;;6244224;22;20019;-90
2022/03/09 11:50:31;;;;;;;5.75;2.30;;;10.30;94.20;;;;;;6245161;22;20062;-90
2022/03/09 11:53:05;;;;;;;1.15;1.05;;;10.30;93.90;;;;;;6242576;22;20012;-92
2022/03/09 11:55:31;;;;;;;0.65;0.57;;;10.40;94.30;;;;;;6242119;22;20012;-92
2022/03/09 11:58:07;;;;;;;0.75;0.70;;;10.50;94.60;;;;;;6244876;22;20031;-92
2022/03/09 12:00:34;;;;;;;0.40;0.40;;;10.50;95.80;;;;;;6243102;22;20069;-92
2022/03/09 12:03:00;;;;;;;1.33;1.08;;;10.60;93.70;;;;;;6243268;22;20015;-90
2022/03/09 12:17:06;;;;;;;0.38;0.38;;;11.30;92.80;;;;;;5090359;27;20433;-84
2022/03/09 12:19:31;;;;;;;9.70;3.03;;;10.90;91.80;;;;;;5081109;28;20485;-84
2022/03/09 12:21:57;;;;;;;3.63;1.38;;;11.00;90.70;;;;;;5045246;28;20047;-84
2022/03/09 12:24:40;;;;;;;2.25;1.55;;;11.00;90.10;;;;;;5048496;28;20492;-84
2022/03/09 12:27:22;;;;;;;3.50;0.60;;;11.00;90.30;;;;;;5039858;28;20039;-85
2022/03/09 12:29:47;;;;;;;0.75;0.70;;;11.10;90.50;;;;;;5066033;28;20690;-83
2022/03/09 12:32:14;;;;;;;5.43;1.38;;;11.20;88.30;;;;;;5055054;28;20039;-84
2022/03/09 12:34:39;;;;;;;1.55;1.13;;;11.20;88.90;;;;;;5048558;28;20135;-85
2022/03/09 12:37:14;;;;;;;3.33;2.10;;;11.20;88.00;;;;;;5071378;28;20082;-85
2022/03/09 12:39:39;;;;;;;0.30;0.30;;;11.30;88.70;;;;;;5055735;28;20051;-84
2022/03/09 12:42:06;;;;;;;1.83;1.20;;;11.40;90.40;;;;;;5036497;28;20041;-82
2022/03/09 12:44:35;;;;;;;2.10;1.92;;;11.40;89.40;;;;;;5035399;28;20663;-83
2022/03/09 12:47:03;;;;;;;1.00;0.73;;;11.40;87.20;;;;;;5031863;28;20036;-85
2022/03/09 12:49:43;;;;;;;2.40;1.70;;;11.40;88.40;;;;;;5062044;28;20431;-85
2022/03/09 12:52:18;;;;;;;1.67;1.48;;;11.50;89.30;;;;;;5052756;28;20373;-86
2022/03/09 12:54:55;;;;;;;1.95;0.88;;;11.50;86.60;;;;;;5048159;28;20051;-84
2022/03/09 12:57:23;;;;;;;5.80;2.78;;;11.50;89.50;;;;;;5068220;28;20097;-84
2022/03/09 13:00:13;;;;;;;1.42;1.33;;;11.50;85.80;;;;;;5041719;28;20036;-85
2022/03/09 13:02:49;;;;;;;3.20;1.10;;;11.50;88.20;;;;;;5054249;28;20040;-85
2022/03/09 13:05:28;;;;;;;2.45;1.52;;;11.50;85.80;;;;;;5052459;28;20036;-85
2022/03/09 13:08:08;;;;;;;1.20;1.10;;;11.60;84.10;;;;;;5062971;28;20059;-86
2022/03/09 13:10:43;;;;;;;1.25;0.88;;;11.60;87.50;;;;;;5039950;28;20495;-84
2022/03/09 13:13:09;;;;;;;1.67;1.27;;;12.20;86.20;;;;;;5059765;28;20136;-86
2022/03/09 13:15:40;;;;;;;1.58;1.23;;;11.80;82.90;;;;;;5066379;28;20055;-86
2022/03/09 13:18:07;;;;;;;0.50;0.50;;;11.80;78.30;;;;;;5051416;28;20040;-86
2022/03/09 13:20:34;;;;;;;3.35;2.25;;;11.70;83.00;;;;;;5076176;28;20036;-89
2022/03/09 13:22:59;;;;;;;3.00;1.85;;;11.80;80.50;;;;;;5078838;28;20040;-87
2022/03/09 13:25:31;;;;;;;2.08;0.93;;;11.80;78.20;;;;;;5060148;28;20516;-88
2022/03/09 13:28:05;;;;;;;1.75;0.93;;;11.80;82.90;;;;;;5072323;28;20044;-89
2022/03/09 13:30:32;;;;;;;2.97;1.65;;;11.80;76.50;;;;;;5055480;28;20044;-89
2022/03/09 13:33:14;;;;;;;1.95;1.25;;;11.90;76.70;;;;;;5067722;28;20043;-88
2022/03/09 13:35:48;;;;;;;3.60;2.75;;;11.90;79.30;;;;;;5033818;28;20245;-86
2022/03/09 13:38:21;;;;;;;5.43;2.90;;;11.90;78.00;;;;;;5048480;28;20037;-87
2022/03/09 13:40:47;;;;;;;0.85;0.65;;;11.90;74.90;;;;;;5055767;28;20292;-87
2022/03/09 13:43:13;;;;;;;4.40;2.20;;;11.90;78.90;;;;;;5054214;28;20102;-87
2022/03/09 13:45:41;;;;;;;5.00;2.53;;;12.50;78.80;;;;;;5057942;28;20040;-88
2022/03/09 13:48:07;;;;;;;2.95;1.65;;;12.00;75.60;;;;;;5042285;28;20029;-88
2022/03/09 13:50:47;;;;;;;1.95;1.52;;;12.00;75.90;;;;;;5069652;28;20094;-88
2022/03/09 13:53:14;;;;;;;3.67;0.85;;;12.00;75.60;;;;;;5048984;28;20041;-87
2022/03/09 13:55:41;;;;;;;3.88;2.35;;;12.10;77.70;;;;;;5049460;28;20080;-87
2022/03/09 13:58:09;;;;;;;4.65;2.55;;;12.10;76.10;;;;;;5066866;28;20036;-87
2022/03/09 14:00:37;;;;;;;2.78;1.80;;;12.70;77.50;;;;;;5047665;28;20048;-87
2022/03/09 14:03:24;;;;;;;7.80;5.20;;;12.00;75.10;;;;;;5054126;28;20451;-85
2022/03/09 14:05:52;;;;;;;1.77;1.30;;;12.00;75.80;;;;;;5037043;28;20119;-86
2022/03/09 14:08:31;;;;;;;3.33;1.77;;;12.10;77.20;;;;;;5039214;28;20040;-85
2022/03/09 14:11:08;;;;;;;2.55;1.88;;;12.10;73.10;;;;;;5044593;28;20037;-84
2022/03/09 14:13:54;;;;;;;1.38;1.27;;;12.20;76.00;;;;;;5045100;28;20114;-87
2022/03/09 14:16:19;;;;;;;;;;;12.30;78.20;;;;;;5054435;28;20090;-88
2022/03/09 14:18:45;;;;;;;2.25;1.83;;;12.30;80.10;;;;;;5044945;28;20750;-87
2022/03/09 14:21:10;;;;;;;10.63;3.83;;;12.40;76.50;;;;;;5038877;28;20044;-87
2022/03/09 14:23:36;;;;;;;2.67;1.67;;;12.30;75.00;;;;;;5050348;28;20040;-88
2022/03/09 14:26:01;;;;;;;3.75;1.98;;;12.40;74.30;;;;;;5046153;28;20381;-87
2022/03/09 14:28:30;;;;;;;1.83;1.38;;;12.40;74.60;;;;;;5044716;28;20453;-87
2022/03/09 14:31:05;;;;;;;0.93;0.70;;;12.40;77.30;;;;;;5082196;28;20414;-87